sensor_id;sensor_type;location;lat;lon;timestamp;pressure;altitude;pressure_sealevel;temperature;humidity
6532;BME280;3299;42.004;24.868;2023-06-10T00:00:15;97687.75;;;19.87;80.28
6532;BME280;3299;42.004;24.868;2023-06-10T00:02:41;97683.06;;;19.83;80.65
6532;BME280;3299;42.004;24.868;2023-06-10T00:05:08;97684.06;;;19.82;80.79
6532;BME280;3299;42.004;24.868;2023-06-10T00:07:33;97667.41;;;19.75;80.61
6532;BME280;3299;42.004;24.868;2023-06-10T00:10:06;97658.97;;;19.65;80.75
6532;BME280;3299;42.004;24.868;2023-06-10T00:12:32;97653.63;;;19.73;80.16
6532;BME280;3299;42.004;24.868;2023-06-10T00:15:03;97659.78;;;19.80;80.36
6532;BME280;3299;42.004;24.868;2023-06-10T00:17:28;97674.72;;;19.94;80.03
6532;BME280;3299;42.004;24.868;2023-06-10T00:19:54;97682.88;;;19.84;79.96
6532;BME280;3299;42.004;24.868;2023-06-10T00:22:20;97675.81;;;19.85;80.10
6532;BME280;3299;42.004;24.868;2023-06-10T00:24:47;97688.88;;;19.93;80.31
6532;BME280;3299;42.004;24.868;2023-06-10T00:27:12;97661.06;;;19.84;79.41
6532;BME280;3299;42.004;24.868;2023-06-10T00:29:38;97693.13;;;19.94;79.77
6532;BME280;3299;42.004;24.868;2023-06-10T00:32:04;97679.97;;;19.94;79.44
6532;BME280;3299;42.004;24.868;2023-06-10T00:34:31;97681.97;;;19.92;80.08
6532;BME280;3299;42.004;24.868;2023-06-10T00:36:57;97694.38;;;19.98;79.76
6532;BME280;3299;42.004;24.868;2023-06-10T00:39:22;97661.94;;;19.76;80.13
6532;BME280;3299;42.004;24.868;2023-06-10T00:41:48;97666.66;;;19.66;80.50
6532;BME280;3299;42.004;24.868;2023-06-10T00:44:13;97684.69;;;19.84;80.33
6532;BME280;3299;42.004;24.868;2023-06-10T00:46:39;97680.97;;;19.78;79.94
6532;BME280;3299;42.004;24.868;2023-06-10T00:49:05;97679.69;;;19.74;80.32
6532;BME280;3299;42.004;24.868;2023-06-10T00:51:31;97697.91;;;19.76;81.10
6532;BME280;3299;42.004;24.868;2023-06-10T00:53:57;97660.59;;;19.66;80.41
6532;BME280;3299;42.004;24.868;2023-06-10T00:56:22;97680.97;;;19.78;80.64
6532;BME280;3299;42.004;24.868;2023-06-10T00:58:48;97678.06;;;19.73;80.40
6532;BME280;3299;42.004;24.868;2023-06-10T01:01:13;97681.25;;;19.69;80.65
6532;BME280;3299;42.004;24.868;2023-06-10T01:03:39;97665.53;;;19.46;81.51
6532;BME280;3299;42.004;24.868;2023-06-10T01:09:24;97691.69;;;19.40;82.93
6532;BME280;3299;42.004;24.868;2023-06-10T01:12:02;97682.63;;;19.20;84.17
6532;BME280;3299;42.004;24.868;2023-06-10T01:14:34;97661.75;;;19.04;84.83
6532;BME280;3299;42.004;24.868;2023-06-10T01:17:01;97689.03;;;19.25;85.70
6532;BME280;3299;42.004;24.868;2023-06-10T01:19:28;97688.53;;;19.22;88.24
6532;BME280;3299;42.004;24.868;2023-06-10T01:21:56;97685.63;;;19.17;89.84
6532;BME280;3299;42.004;24.868;2023-06-10T01:24:26;97667.91;;;18.96;89.18
6532;BME280;3299;42.004;24.868;2023-06-10T01:26:53;97659.84;;;18.98;86.12
6532;BME280;3299;42.004;24.868;2023-06-10T01:29:34;97671.03;;;18.92;86.07
6532;BME280;3299;42.004;24.868;2023-06-10T01:32:17;97698.06;;;19.15;85.01
6532;BME280;3299;42.004;24.868;2023-06-10T01:34:44;97687.66;;;19.07;85.06
6532;BME280;3299;42.004;24.868;2023-06-10T01:37:13;97693.47;;;19.17;84.93
6532;BME280;3299;42.004;24.868;2023-06-10T01:39:42;97695.22;;;19.24;84.30
6532;BME280;3299;42.004;24.868;2023-06-10T01:42:08;97692.47;;;19.18;84.31
6532;BME280;3299;42.004;24.868;2023-06-10T01:44:35;97681.78;;;19.05;84.96
6532;BME280;3299;42.004;24.868;2023-06-10T01:47:00;97707.63;;;19.08;85.46
6532;BME280;3299;42.004;24.868;2023-06-10T01:49:26;97688.38;;;18.93;86.01
6532;BME280;3299;42.004;24.868;2023-06-10T01:51:53;97694.81;;;18.90;85.83
6532;BME280;3299;42.004;24.868;2023-06-10T01:54:19;97684.34;;;18.90;86.26
6532;BME280;3299;42.004;24.868;2023-06-10T01:56:44;97691.53;;;18.88;87.24
6532;BME280;3299;42.004;24.868;2023-06-10T01:59:09;97684.91;;;18.78;88.70
6532;BME280;3299;42.004;24.868;2023-06-10T02:01:35;97713.63;;;18.94;88.91
6532;BME280;3299;42.004;24.868;2023-06-10T02:04:00;97693.53;;;18.86;88.82
6532;BME280;3299;42.004;24.868;2023-06-10T02:06:26;97700.06;;;18.90;87.51
6532;BME280;3299;42.004;24.868;2023-06-10T02:08:51;97703.19;;;18.86;88.11
6532;BME280;3299;42.004;24.868;2023-06-10T02:11:16;97712.28;;;18.98;87.50
6532;BME280;3299;42.004;24.868;2023-06-10T02:13:43;97700.78;;;18.76;88.34
6532;BME280;3299;42.004;24.868;2023-06-10T02:16:08;97713.44;;;18.73;88.93
6532;BME280;3299;42.004;24.868;2023-06-10T02:18:38;97715.75;;;18.68;89.50
6532;BME280;3299;42.004;24.868;2023-06-10T02:21:06;97696.53;;;18.45;90.42
6532;BME280;3299;42.004;24.868;2023-06-10T02:23:32;97703.38;;;18.54;90.50
6532;BME280;3299;42.004;24.868;2023-06-10T02:25:57;97695.72;;;18.44;90.68
6532;BME280;3299;42.004;24.868;2023-06-10T02:28:22;97674.31;;;18.41;90.51
6532;BME280;3299;42.004;24.868;2023-06-10T02:30:48;97681.59;;;18.53;90.04
6532;BME280;3299;42.004;24.868;2023-06-10T02:33:13;97682.06;;;18.57;89.27
6532;BME280;3299;42.004;24.868;2023-06-10T02:35:39;97696.59;;;18.67;89.12
6532;BME280;3299;42.004;24.868;2023-06-10T02:38:05;97698.03;;;18.70;88.52
6532;BME280;3299;42.004;24.868;2023-06-10T02:40:30;97678.13;;;18.61;88.63
6532;BME280;3299;42.004;24.868;2023-06-10T02:42:56;97673.94;;;18.74;87.57
6532;BME280;3299;42.004;24.868;2023-06-10T02:45:22;97695.38;;;18.78;87.10
6532;BME280;3299;42.004;24.868;2023-06-10T02:47:47;97691.00;;;18.70;87.49
6532;BME280;3299;42.004;24.868;2023-06-10T02:50:13;97700.72;;;18.62;88.58
6532;BME280;3299;42.004;24.868;2023-06-10T02:52:38;97699.94;;;18.53;89.31
6532;BME280;3299;42.004;24.868;2023-06-10T02:55:04;97682.28;;;18.47;89.47
6532;BME280;3299;42.004;24.868;2023-06-10T02:57:30;97690.78;;;18.49;89.78
6532;BME280;3299;42.004;24.868;2023-06-10T02:59:55;97675.41;;;18.46;88.97
6532;BME280;3299;42.004;24.868;2023-06-10T03:02:21;97702.31;;;18.71;88.35
6532;BME280;3299;42.004;24.868;2023-06-10T03:04:47;97693.31;;;18.65;88.25
6532;BME280;3299;42.004;24.868;2023-06-10T03:07:13;97681.25;;;18.56;89.20
6532;BME280;3299;42.004;24.868;2023-06-10T03:09:39;97677.28;;;18.60;88.88
6532;BME280;3299;42.004;24.868;2023-06-10T03:12:04;97690.53;;;18.67;88.98
6532;BME280;3299;42.004;24.868;2023-06-10T03:14:31;97679.75;;;18.62;89.42
6532;BME280;3299;42.004;24.868;2023-06-10T03:16:56;97696.59;;;18.67;88.90
6532;BME280;3299;42.004;24.868;2023-06-10T03:19:22;97682.66;;;18.67;88.15
6532;BME280;3299;42.004;24.868;2023-06-10T03:21:49;97701.03;;;18.89;88.04
6532;BME280;3299;42.004;24.868;2023-06-10T03:24:19;97693.38;;;18.80;87.65
6532;BME280;3299;42.004;24.868;2023-06-10T03:26:45;97690.44;;;18.83;87.15
6532;BME280;3299;42.004;24.868;2023-06-10T03:29:11;97691.69;;;18.87;87.36
6532;BME280;3299;42.004;24.868;2023-06-10T03:31:36;97718.19;;;19.00;87.45
6532;BME280;3299;42.004;24.868;2023-06-10T03:34:02;97715.44;;;18.93;87.06
6532;BME280;3299;42.004;24.868;2023-06-10T03:36:27;97734.88;;;18.99;86.51
6532;BME280;3299;42.004;24.868;2023-06-10T03:38:54;97704.19;;;18.85;85.92
6532;BME280;3299;42.004;24.868;2023-06-10T03:41:22;97728.38;;;18.95;86.35
6532;BME280;3299;42.004;24.868;2023-06-10T03:43:48;97733.63;;;18.95;86.77
6532;BME280;3299;42.004;24.868;2023-06-10T03:46:13;97717.97;;;18.79;87.43
6532;BME280;3299;42.004;24.868;2023-06-10T03:48:39;97731.63;;;18.97;87.21
6532;BME280;3299;42.004;24.868;2023-06-10T03:51:04;97721.13;;;18.97;87.19
6532;BME280;3299;42.004;24.868;2023-06-10T03:53:30;97701.69;;;18.91;86.85
6532;BME280;3299;42.004;24.868;2023-06-10T03:55:55;97716.72;;;18.97;87.05
6532;BME280;3299;42.004;24.868;2023-06-10T03:58:22;97713.56;;;19.02;86.99
6532;BME280;3299;42.004;24.868;2023-06-10T04:00:48;97710.41;;;19.06;86.37
6532;BME280;3299;42.004;24.868;2023-06-10T04:03:15;97726.41;;;19.19;85.77
6532;BME280;3299;42.004;24.868;2023-06-10T04:05:40;97725.50;;;19.35;85.07
6532;BME280;3299;42.004;24.868;2023-06-10T04:08:07;97715.34;;;19.32;84.80
6532;BME280;3299;42.004;24.868;2023-06-10T04:10:32;97722.16;;;19.41;84.62
6532;BME280;3299;42.004;24.868;2023-06-10T04:12:58;97696.69;;;19.27;84.42
6532;BME280;3299;42.004;24.868;2023-06-10T04:15:25;97722.91;;;19.49;83.99
6532;BME280;3299;42.004;24.868;2023-06-10T04:17:51;97717.91;;;19.40;84.07
6532;BME280;3299;42.004;24.868;2023-06-10T04:20:16;97720.47;;;19.48;84.42
6532;BME280;3299;42.004;24.868;2023-06-10T04:22:42;97718.47;;;19.50;83.61
6532;BME280;3299;42.004;24.868;2023-06-10T04:25:09;97723.09;;;19.48;83.59
6532;BME280;3299;42.004;24.868;2023-06-10T04:27:34;97699.91;;;19.37;83.61
6532;BME280;3299;42.004;24.868;2023-06-10T04:30:00;97708.75;;;19.36;83.67
6532;BME280;3299;42.004;24.868;2023-06-10T04:32:25;97716.97;;;19.55;82.83
6532;BME280;3299;42.004;24.868;2023-06-10T04:34:51;97722.22;;;19.55;82.83
6532;BME280;3299;42.004;24.868;2023-06-10T04:37:17;97688.78;;;19.35;83.50
6532;BME280;3299;42.004;24.868;2023-06-10T04:39:42;97703.56;;;19.50;83.58
6532;BME280;3299;42.004;24.868;2023-06-10T04:42:07;97702.38;;;19.53;83.38
6532;BME280;3299;42.004;24.868;2023-06-10T04:44:33;97712.50;;;19.56;83.68
6532;BME280;3299;42.004;24.868;2023-06-10T04:46:58;97703.09;;;19.47;84.00
6532;BME280;3299;42.004;24.868;2023-06-10T04:49:24;97682.28;;;19.45;83.79
6532;BME280;3299;42.004;24.868;2023-06-10T04:51:49;97711.09;;;19.68;84.13
6532;BME280;3299;42.004;24.868;2023-06-10T04:54:16;97689.72;;;19.56;83.76
6532;BME280;3299;42.004;24.868;2023-06-10T04:56:42;97713.72;;;19.82;83.05
6532;BME280;3299;42.004;24.868;2023-06-10T04:59:07;97705.84;;;19.68;82.80
6532;BME280;3299;42.004;24.868;2023-06-10T05:01:33;97702.25;;;19.69;82.95
6532;BME280;3299;42.004;24.868;2023-06-10T05:03:58;97711.75;;;19.70;83.55
6532;BME280;3299;42.004;24.868;2023-06-10T05:06:23;97706.50;;;19.70;83.72
6532;BME280;3299;42.004;24.868;2023-06-10T05:08:49;97702.69;;;19.72;83.92
6532;BME280;3299;42.004;24.868;2023-06-10T05:11:14;97698.19;;;19.81;83.20
6532;BME280;3299;42.004;24.868;2023-06-10T05:13:41;97714.03;;;20.02;81.90
6532;BME280;3299;42.004;24.868;2023-06-10T05:16:08;97717.25;;;20.12;81.98
6532;BME280;3299;42.004;24.868;2023-06-10T05:18:34;97715.25;;;20.14;82.19
6532;BME280;3299;42.004;24.868;2023-06-10T05:21:01;97691.66;;;20.06;81.39
6532;BME280;3299;42.004;24.868;2023-06-10T05:23:26;97699.66;;;20.12;81.70
6532;BME280;3299;42.004;24.868;2023-06-10T05:25:52;97704.09;;;20.26;81.28
6532;BME280;3299;42.004;24.868;2023-06-10T05:28:17;97710.41;;;20.32;81.25
6532;BME280;3299;42.004;24.868;2023-06-10T05:30:43;97706.81;;;20.33;81.17
6532;BME280;3299;42.004;24.868;2023-06-10T05:33:08;97684.88;;;20.26;81.11
6532;BME280;3299;42.004;24.868;2023-06-10T05:35:34;97684.09;;;20.25;80.61
6532;BME280;3299;42.004;24.868;2023-06-10T05:37:59;97694.31;;;20.35;80.42
6532;BME280;3299;42.004;24.868;2023-06-10T05:40:25;97682.91;;;20.28;80.47
6532;BME280;3299;42.004;24.868;2023-06-10T05:42:50;97710.41;;;20.46;80.76
6532;BME280;3299;42.004;24.868;2023-06-10T05:45:16;97685.88;;;20.39;80.37
6532;BME280;3299;42.004;24.868;2023-06-10T05:47:41;97685.16;;;20.31;80.60
6532;BME280;3299;42.004;24.868;2023-06-10T05:50:07;97713.41;;;20.58;80.50
6532;BME280;3299;42.004;24.868;2023-06-10T05:52:34;97698.09;;;20.47;80.86
6532;BME280;3299;42.004;24.868;2023-06-10T05:55:00;97703.88;;;20.57;80.25
6532;BME280;3299;42.004;24.868;2023-06-10T05:57:25;97716.44;;;20.76;80.32
6532;BME280;3299;42.004;24.868;2023-06-10T05:59:51;97708.72;;;20.74;79.87
6532;BME280;3299;42.004;24.868;2023-06-10T06:02:16;97717.59;;;20.88;79.41
6532;BME280;3299;42.004;24.868;2023-06-10T06:04:42;97720.38;;;21.01;79.09
6532;BME280;3299;42.004;24.868;2023-06-10T06:07:07;97699.81;;;20.90;78.57
6532;BME280;3299;42.004;24.868;2023-06-10T06:09:33;97722.69;;;21.10;78.41
6532;BME280;3299;42.004;24.868;2023-06-10T06:11:58;97707.75;;;21.11;78.55
6532;BME280;3299;42.004;24.868;2023-06-10T06:14:23;97727.66;;;21.20;79.32
6532;BME280;3299;42.004;24.868;2023-06-10T06:16:49;97719.28;;;21.10;79.73
6532;BME280;3299;42.004;24.868;2023-06-10T06:19:14;97707.75;;;21.11;80.35
6532;BME280;3299;42.004;24.868;2023-06-10T06:21:41;97733.84;;;21.33;80.29
6532;BME280;3299;42.004;24.868;2023-06-10T06:24:06;97738.31;;;21.33;81.41
6532;BME280;3299;42.004;24.868;2023-06-10T06:26:32;97710.38;;;21.32;80.69
6532;BME280;3299;42.004;24.868;2023-06-10T06:28:57;97740.56;;;21.57;80.79
6532;BME280;3299;42.004;24.868;2023-06-10T06:31:23;97731.91;;;21.63;80.75
6532;BME280;3299;42.004;24.868;2023-06-10T06:33:48;97733.91;;;21.82;81.13
6532;BME280;3299;42.004;24.868;2023-06-10T06:36:13;97728.72;;;21.95;82.68
6532;BME280;3299;42.004;24.868;2023-06-10T06:38:39;97728.59;;;22.03;83.09
6532;BME280;3299;42.004;24.868;2023-06-10T06:41:04;97734.53;;;22.18;83.86
6532;BME280;3299;42.004;24.868;2023-06-10T06:43:32;97728.53;;;22.30;83.25
6532;BME280;3299;42.004;24.868;2023-06-10T06:45:57;97721.25;;;22.32;81.98
6532;BME280;3299;42.004;24.868;2023-06-10T06:48:23;97743.31;;;22.52;80.27
6532;BME280;3299;42.004;24.868;2023-06-10T06:50:49;97707.34;;;22.45;80.16
6532;BME280;3299;42.004;24.868;2023-06-10T06:53:14;97715.53;;;22.63;80.01
6532;BME280;3299;42.004;24.868;2023-06-10T06:55:39;97732.88;;;22.85;80.07
6532;BME280;3299;42.004;24.868;2023-06-10T06:58:05;97734.53;;;22.92;80.15
6532;BME280;3299;42.004;24.868;2023-06-10T07:00:31;97701.81;;;22.87;80.37
6532;BME280;3299;42.004;24.868;2023-06-10T07:02:56;97715.09;;;23.13;78.49
6532;BME280;3299;42.004;24.868;2023-06-10T07:05:22;97720.44;;;23.26;78.38
6532;BME280;3299;42.004;24.868;2023-06-10T07:07:48;97715.50;;;23.16;76.78
6532;BME280;3299;42.004;24.868;2023-06-10T07:10:19;97709.03;;;23.25;74.68
6532;BME280;3299;42.004;24.868;2023-06-10T07:12:47;97713.75;;;23.30;72.35
6532;BME280;3299;42.004;24.868;2023-06-10T07:15:12;97698.91;;;23.22;73.74
6532;BME280;3299;42.004;24.868;2023-06-10T07:17:38;97714.34;;;23.38;74.62
6532;BME280;3299;42.004;24.868;2023-06-10T07:20:03;97708.06;;;23.39;74.44
6532;BME280;3299;42.004;24.868;2023-06-10T07:22:29;97683.06;;;23.42;74.34
6532;BME280;3299;42.004;24.868;2023-06-10T07:24:54;97708.66;;;23.73;73.49
6532;BME280;3299;42.004;24.868;2023-06-10T07:27:20;97708.66;;;23.93;72.35
6532;BME280;3299;42.004;24.868;2023-06-10T07:29:46;97708.69;;;24.00;71.11
6532;BME280;3299;42.004;24.868;2023-06-10T07:32:11;97703.16;;;24.08;70.57
6532;BME280;3299;42.004;24.868;2023-06-10T07:34:36;97699.88;;;24.18;70.06
6532;BME280;3299;42.004;24.868;2023-06-10T07:37:02;97714.06;;;24.37;70.02
6532;BME280;3299;42.004;24.868;2023-06-10T07:39:27;97715.06;;;24.49;69.79
6532;BME280;3299;42.004;24.868;2023-06-10T07:41:53;97703.63;;;24.55;69.25
6532;BME280;3299;42.004;24.868;2023-06-10T07:44:19;97699.59;;;24.46;68.09
6532;BME280;3299;42.004;24.868;2023-06-10T07:46:45;97714.00;;;24.56;68.40
6532;BME280;3299;42.004;24.868;2023-06-10T07:49:10;97707.47;;;24.65;69.15
6532;BME280;3299;42.004;24.868;2023-06-10T07:51:36;97716.59;;;24.76;69.03
6532;BME280;3299;42.004;24.868;2023-06-10T07:54:02;97720.44;;;24.86;69.13
6532;BME280;3299;42.004;24.868;2023-06-10T07:56:27;97716.31;;;24.90;68.87
6532;BME280;3299;42.004;24.868;2023-06-10T07:58:52;97721.00;;;24.95;68.44
6532;BME280;3299;42.004;24.868;2023-06-10T08:01:18;97714.50;;;24.91;68.74
6532;BME280;3299;42.004;24.868;2023-06-10T08:03:43;97718.09;;;24.96;68.90
6532;BME280;3299;42.004;24.868;2023-06-10T08:06:09;97719.34;;;24.94;67.91
6532;BME280;3299;42.004;24.868;2023-06-10T08:08:36;97723.91;;;24.80;68.14
6532;BME280;3299;42.004;24.868;2023-06-10T08:11:07;97712.56;;;24.67;69.36
6532;BME280;3299;42.004;24.868;2023-06-10T08:13:32;97716.25;;;24.59;69.66
6532;BME280;3299;42.004;24.868;2023-06-10T08:15:58;97705.66;;;24.66;69.54
6532;BME280;3299;42.004;24.868;2023-06-10T08:18:23;97716.19;;;24.72;69.48
6532;BME280;3299;42.004;24.868;2023-06-10T08:20:48;97708.44;;;24.77;68.99
6532;BME280;3299;42.004;24.868;2023-06-10T08:23:14;97705.94;;;24.89;67.48
6532;BME280;3299;42.004;24.868;2023-06-10T08:25:39;97699.00;;;24.94;67.19
6532;BME280;3299;42.004;24.868;2023-06-10T08:28:05;97718.47;;;25.06;66.54
6532;BME280;3299;42.004;24.868;2023-06-10T08:30:30;97686.69;;;25.06;66.31
6532;BME280;3299;42.004;24.868;2023-06-10T08:32:56;97700.47;;;25.21;66.03
6532;BME280;3299;42.004;24.868;2023-06-10T08:35:21;97703.28;;;25.26;66.11
6532;BME280;3299;42.004;24.868;2023-06-10T08:37:47;97694.38;;;25.14;64.81
6532;BME280;3299;42.004;24.868;2023-06-10T08:40:12;97710.81;;;25.29;64.08
6532;BME280;3299;42.004;24.868;2023-06-10T08:43:05;97711.22;;;25.26;65.75
6532;BME280;3299;42.004;24.868;2023-06-10T08:45:34;97691.50;;;25.22;64.89
6532;BME280;3299;42.004;24.868;2023-06-10T08:48:02;97713.34;;;25.49;64.04
6532;BME280;3299;42.004;24.868;2023-06-10T08:50:30;97703.97;;;25.46;63.65
6532;BME280;3299;42.004;24.868;2023-06-10T08:52:57;97702.25;;;25.58;63.45
6532;BME280;3299;42.004;24.868;2023-06-10T08:55:29;97698.91;;;25.69;63.67
6532;BME280;3299;42.004;24.868;2023-06-10T08:57:55;97694.50;;;25.81;61.92
6532;BME280;3299;42.004;24.868;2023-06-10T09:00:21;97676.31;;;25.85;62.28
6532;BME280;3299;42.004;24.868;2023-06-10T09:02:47;97694.13;;;26.02;61.94
6532;BME280;3299;42.004;24.868;2023-06-10T09:05:13;97693.25;;;26.08;58.59
6532;BME280;3299;42.004;24.868;2023-06-10T09:07:40;97692.94;;;25.98;57.26
6532;BME280;3299;42.004;24.868;2023-06-10T09:10:06;97679.56;;;25.87;56.24
6532;BME280;3299;42.004;24.868;2023-06-10T09:12:34;97662.53;;;25.76;55.90
6532;BME280;3299;42.004;24.868;2023-06-10T09:15:01;97683.41;;;25.66;56.89
6532;BME280;3299;42.004;24.868;2023-06-10T09:17:27;97672.50;;;25.56;55.29
6532;BME280;3299;42.004;24.868;2023-06-10T09:19:53;97679.84;;;25.54;54.71
6532;BME280;3299;42.004;24.868;2023-06-10T09:22:21;97683.13;;;25.56;53.09
6532;BME280;3299;42.004;24.868;2023-06-10T09:24:47;97682.78;;;25.46;52.98
6532;BME280;3299;42.004;24.868;2023-06-10T09:27:13;97674.25;;;25.44;54.27
6532;BME280;3299;42.004;24.868;2023-06-10T09:29:51;97680.00;;;25.59;54.07
6532;BME280;3299;42.004;24.868;2023-06-10T09:32:20;97673.69;;;25.60;53.42
6532;BME280;3299;42.004;24.868;2023-06-10T09:34:46;97682.16;;;25.69;53.82
6532;BME280;3299;42.004;24.868;2023-06-10T09:37:12;97676.75;;;25.82;55.28
6532;BME280;3299;42.004;24.868;2023-06-10T09:39:39;97665.56;;;26.04;55.07
6532;BME280;3299;42.004;24.868;2023-06-10T09:42:18;97674.75;;;26.38;53.90
6532;BME280;3299;42.004;24.868;2023-06-10T09:44:51;97660.03;;;26.60;52.65
6532;BME280;3299;42.004;24.868;2023-06-10T09:47:22;97665.03;;;26.68;52.13
6532;BME280;3299;42.004;24.868;2023-06-10T09:49:49;97672.28;;;26.90;51.46
6532;BME280;3299;42.004;24.868;2023-06-10T09:52:21;97669.88;;;27.00;51.80
6532;BME280;3299;42.004;24.868;2023-06-10T09:54:47;97673.78;;;26.98;51.97
6532;BME280;3299;42.004;24.868;2023-06-10T09:57:12;97677.25;;;27.16;51.52
6532;BME280;3299;42.004;24.868;2023-06-10T09:59:39;97675.47;;;27.10;50.80
6532;BME280;3299;42.004;24.868;2023-06-10T10:02:05;97664.25;;;27.08;50.33
6532;BME280;3299;42.004;24.868;2023-06-10T10:04:30;97663.34;;;26.85;50.54
6532;BME280;3299;42.004;24.868;2023-06-10T10:06:56;97646.25;;;26.33;50.80
6532;BME280;3299;42.004;24.868;2023-06-10T10:09:21;97671.16;;;26.50;51.63
6532;BME280;3299;42.004;24.868;2023-06-10T10:11:48;97643.66;;;26.45;50.52
6532;BME280;3299;42.004;24.868;2023-06-10T10:14:15;97640.41;;;26.43;51.31
6532;BME280;3299;42.004;24.868;2023-06-10T10:16:42;97649.91;;;26.50;51.05
6532;BME280;3299;42.004;24.868;2023-06-10T10:19:12;97659.00;;;26.43;51.24
6532;BME280;3299;42.004;24.868;2023-06-10T10:21:56;97659.88;;;26.37;49.73
6532;BME280;3299;42.004;24.868;2023-06-10T10:24:33;97646.94;;;26.29;50.16
6532;BME280;3299;42.004;24.868;2023-06-10T10:27:07;97666.78;;;26.38;54.06
6532;BME280;3299;42.004;24.868;2023-06-10T10:29:39;97656.50;;;26.30;55.25
6532;BME280;3299;42.004;24.868;2023-06-10T10:32:06;97673.72;;;26.39;52.78
6532;BME280;3299;42.004;24.868;2023-06-10T10:35:12;97664.97;;;26.38;50.65
6532;BME280;3299;42.004;24.868;2023-06-10T10:37:36;97664.34;;;26.36;50.56
6532;BME280;3299;42.004;24.868;2023-06-10T10:40:03;97647.81;;;26.23;52.19
6532;BME280;3299;42.004;24.868;2023-06-10T10:42:29;97666.97;;;26.25;53.67
6532;BME280;3299;42.004;24.868;2023-06-10T10:44:55;97662.44;;;26.25;52.97
6532;BME280;3299;42.004;24.868;2023-06-10T10:47:22;97674.19;;;26.18;53.86
6532;BME280;3299;42.004;24.868;2023-06-10T10:49:51;97669.41;;;26.08;55.51
6532;BME280;3299;42.004;24.868;2023-06-10T10:52:20;97676.94;;;26.05;56.08
6532;BME280;3299;42.004;24.868;2023-06-10T10:54:46;97677.63;;;26.00;52.11
6532;BME280;3299;42.004;24.868;2023-06-10T10:59:53;97678.31;;;25.89;55.24
6532;BME280;3299;42.004;24.868;2023-06-10T11:05:07;97649.25;;;25.58;55.83
6532;BME280;3299;42.004;24.868;2023-06-10T11:07:34;97663.31;;;25.34;59.26
6532;BME280;3299;42.004;24.868;2023-06-10T11:10:07;97674.56;;;25.23;60.87
6532;BME280;3299;42.004;24.868;2023-06-10T11:15:18;97656.16;;;24.73;63.95
6532;BME280;3299;42.004;24.868;2023-06-10T11:18:09;97670.84;;;24.62;66.42
6532;BME280;3299;42.004;24.868;2023-06-10T11:26:15;97659.06;;;24.02;73.32
6532;BME280;3299;42.004;24.868;2023-06-10T11:29:03;97637.91;;;23.75;72.88
6532;BME280;3299;42.004;24.868;2023-06-10T11:31:33;97659.28;;;23.74;72.62
6532;BME280;3299;42.004;24.868;2023-06-10T11:34:03;97668.84;;;23.62;73.87
6532;BME280;3299;42.004;24.868;2023-06-10T11:36:30;97670.28;;;23.45;75.14
6532;BME280;3299;42.004;24.868;2023-06-10T11:39:02;97653.63;;;23.32;78.10
6532;BME280;3299;42.004;24.868;2023-06-10T11:41:29;97654.22;;;23.34;79.52
6532;BME280;3299;42.004;24.868;2023-06-10T11:43:57;97653.63;;;23.32;84.26
6532;BME280;3299;42.004;24.868;2023-06-10T11:46:25;97626.97;;;23.14;90.61
6532;BME280;3299;42.004;24.868;2023-06-10T11:48:57;97644.81;;;23.12;99.54
6532;BME280;3299;42.004;24.868;2023-06-10T11:51:28;97656.25;;;23.19;100.00
6532;BME280;3299;42.004;24.868;2023-06-10T11:53:54;97628.59;;;22.89;100.00
6532;BME280;3299;42.004;24.868;2023-06-10T11:56:23;97643.75;;;22.74;100.00
6532;BME280;3299;42.004;24.868;2023-06-10T11:58:59;97637.00;;;22.52;100.00
6532;BME280;3299;42.004;24.868;2023-06-10T12:01:30;97647.84;;;22.36;100.00
6532;BME280;3299;42.004;24.868;2023-06-10T12:06:24;97628.00;;;21.93;100.00
6532;BME280;3299;42.004;24.868;2023-06-10T12:08:49;97624.56;;;21.65;100.00
6532;BME280;3299;42.004;24.868;2023-06-10T12:11:15;97640.84;;;21.47;100.00
6532;BME280;3299;42.004;24.868;2023-06-10T12:13:48;97642.47;;;21.48;100.00
6532;BME280;3299;42.004;24.868;2023-06-10T12:16:14;97625.66;;;21.22;100.00
6532;BME280;3299;42.004;24.868;2023-06-10T12:18:42;97608.13;;;21.08;100.00
6532;BME280;3299;42.004;24.868;2023-06-10T12:21:24;97598.75;;;20.99;100.00
6532;BME280;3299;42.004;24.868;2023-06-10T12:24:09;97606.50;;;21.07;100.00
6532;BME280;3299;42.004;24.868;2023-06-10T12:26:42;97618.78;;;21.21;100.00
6532;BME280;3299;42.004;24.868;2023-06-10T12:29:21;97600.31;;;21.14;100.00
6532;BME280;3299;42.004;24.868;2023-06-10T12:32:04;97622.53;;;21.33;100.00
6532;BME280;3299;42.004;24.868;2023-06-10T12:34:35;97622.53;;;21.33;100.00
6532;BME280;3299;42.004;24.868;2023-06-10T12:37:02;97609.88;;;21.22;100.00
6532;BME280;3299;42.004;24.868;2023-06-10T12:39:29;97609.72;;;21.30;100.00
6532;BME280;3299;42.004;24.868;2023-06-10T12:41:55;97611.50;;;21.23;100.00
6532;BME280;3299;42.004;24.868;2023-06-10T12:44:34;97590.59;;;21.15;100.00
6532;BME280;3299;42.004;24.868;2023-06-10T12:47:00;97573.41;;;21.19;100.00
6532;BME280;3299;42.004;24.868;2023-06-10T12:49:26;97576.91;;;21.26;100.00
6532;BME280;3299;42.004;24.868;2023-06-10T12:51:52;97583.97;;;21.46;100.00
6532;BME280;3299;42.004;24.868;2023-06-10T12:54:19;97593.13;;;21.57;100.00
6532;BME280;3299;42.004;24.868;2023-06-10T12:56:44;97557.63;;;21.46;100.00
6532;BME280;3299;42.004;24.868;2023-06-10T12:59:09;97578.69;;;21.74;100.00
6532;BME280;3299;42.004;24.868;2023-06-10T13:01:37;97552.75;;;21.77;100.00
6532;BME280;3299;42.004;24.868;2023-06-10T13:04:05;97552.03;;;21.96;100.00
6532;BME280;3299;42.004;24.868;2023-06-10T13:06:31;97558.63;;;22.26;100.00
6532;BME280;3299;42.004;24.868;2023-06-10T13:08:58;97547.19;;;22.60;100.00
6532;BME280;3299;42.004;24.868;2023-06-10T13:11:24;97576.00;;;22.94;100.00
6532;BME280;3299;42.004;24.868;2023-06-10T13:13:50;97584.94;;;23.12;100.00
6532;BME280;3299;42.004;24.868;2023-06-10T13:16:16;97564.03;;;23.30;100.00
6532;BME280;3299;42.004;24.868;2023-06-10T13:18:42;97582.28;;;23.64;100.00
6532;BME280;3299;42.004;24.868;2023-06-10T13:21:07;97555.19;;;23.88;100.00
6532;BME280;3299;42.004;24.868;2023-06-10T13:23:33;97572.06;;;24.37;98.67
6532;BME280;3299;42.004;24.868;2023-06-10T13:25:59;97565.25;;;24.61;90.44
6532;BME280;3299;42.004;24.868;2023-06-10T13:28:25;97567.47;;;24.95;91.00